createdAt,value
2023-01-03T00:01:47.395Z,82.16
2023-01-03T00:04:16.943Z,81.90
2023-01-03T00:06:47.785Z,81.80
2023-01-03T00:09:18.554Z,81.57
2023-01-03T00:12:07.976Z,81.13
2023-01-03T00:14:39.275Z,81.04
2023-01-03T00:17:09.844Z,81.18
2023-01-03T00:19:43.667Z,81.85
2023-01-03T00:22:13.804Z,82.54
2023-01-03T00:24:46.704Z,82.18
2023-01-03T00:27:15.917Z,81.89
2023-01-03T00:29:44.644Z,81.61
2023-01-03T00:32:13.141Z,81.58
2023-01-03T00:34:43.985Z,81.58
2023-01-03T00:37:13.572Z,82.45
2023-01-03T00:39:41.691Z,82.13
2023-01-03T00:42:09.697Z,81.69
2023-01-03T00:44:37.800Z,81.62
2023-01-03T00:47:05.958Z,81.29
2023-01-03T00:49:34.148Z,81.06
2023-01-03T00:52:02.149Z,81.20
2023-01-03T00:54:30.320Z,81.10
2023-01-03T00:56:58.478Z,80.90
2023-01-03T00:59:26.990Z,80.78
2023-01-03T01:01:56.854Z,80.42
2023-01-03T01:04:30.828Z,80.30
2023-01-03T01:07:01.712Z,79.82
2023-01-03T01:09:34.271Z,80.03
2023-01-03T01:12:03.723Z,80.27
2023-01-03T01:14:33.645Z,80.55
2023-01-03T01:17:05.432Z,81.05
2023-01-03T01:19:36.426Z,81.25
2023-01-03T01:22:05.145Z,81.49
2023-01-03T01:24:34.106Z,81.49
2023-01-03T01:27:02.509Z,81.76
2023-01-03T01:29:30.580Z,81.65
2023-01-03T01:31:58.817Z,81.67
2023-01-03T01:34:27.008Z,81.35
2023-01-03T01:36:55.256Z,81.12
2023-01-03T01:39:26.609Z,80.95
2023-01-03T01:42:20.794Z,80.78
2023-01-03T01:44:54.446Z,80.50
2023-01-03T01:47:31.788Z,80.45
2023-01-03T01:50:05.711Z,80.50
2023-01-03T01:52:36.963Z,80.43
2023-01-03T01:55:07.487Z,80.65
2023-01-03T01:57:37.207Z,80.25
2023-01-03T02:00:07.937Z,80.45
2023-01-03T02:02:44.237Z,80.85
2023-01-03T02:05:13.530Z,80.79
2023-01-03T02:07:42.669Z,80.98
2023-01-03T02:10:10.795Z,81.16
2023-01-03T02:13:05.259Z,81.10
2023-01-03T02:15:33.348Z,80.84
2023-01-03T02:18:32.392Z,80.55
2023-01-03T02:21:42.647Z,80.56
2023-01-03T02:24:28.376Z,80.45
2023-01-03T02:27:30.707Z,80.36
2023-01-03T02:30:34.485Z,80.47
2023-01-03T02:33:24.149Z,80.52
2023-01-03T02:36:22.643Z,80.61
2023-01-03T02:39:00.481Z,80.48
2023-01-03T02:41:28.507Z,80.46
2023-01-03T02:44:02.307Z,80.21
2023-01-03T02:46:51.846Z,80.04
2023-01-03T02:49:33.077Z,80.28
2023-01-03T02:52:17.196Z,80.73
2023-01-03T02:55:14.775Z,80.92
2023-01-03T02:57:48.315Z,80.73
2023-01-03T03:00:20.271Z,80.67
2023-01-03T03:02:53.408Z,80.65
2023-01-03T03:06:11.142Z,80.70
2023-01-03T03:08:39.446Z,80.76
2023-01-03T03:11:26.444Z,80.86
2023-01-03T03:14:00.983Z,80.80
2023-01-03T03:16:49.806Z,80.77
2023-01-03T03:19:39.735Z,80.64
2023-01-03T03:22:53.118Z,80.73
2023-01-03T03:25:30.809Z,80.61
2023-01-03T03:28:21.234Z,80.45
2023-01-03T03:30:53.006Z,80.42
2023-01-03T03:33:22.305Z,80.19
2023-01-03T03:36:17.241Z,80.13
2023-01-03T03:38:45.992Z,79.93
2023-01-03T03:41:47.949Z,79.99
2023-01-03T03:45:03.324Z,79.99
2023-01-03T03:48:02.168Z,79.75
2023-01-03T03:50:41.414Z,79.98
2023-01-03T03:53:10.979Z,80.13
2023-01-03T03:55:46.241Z,80.26
2023-01-03T03:58:20.969Z,80.30
2023-01-03T04:00:50.647Z,80.21
2023-01-03T04:03:19.998Z,80.26
2023-01-03T04:05:58.337Z,80.13
2023-01-03T04:08:26.831Z,79.96
2023-01-03T04:11:06.019Z,80.26
2023-01-03T04:13:36.179Z,80.59
2023-01-03T04:16:05.619Z,80.69
2023-01-03T04:18:33.828Z,80.85
2023-01-03T04:21:02.190Z,80.95
2023-01-03T04:23:30.241Z,80.98
2023-01-03T04:25:58.318Z,81.01
2023-01-03T04:28:26.311Z,80.96
2023-01-03T04:30:54.298Z,80.82
2023-01-03T04:33:22.372Z,80.98
2023-01-03T04:35:50.409Z,80.87
2023-01-03T04:38:18.499Z,80.98
2023-01-03T04:40:46.916Z,80.99
2023-01-03T04:43:34.012Z,80.94
2023-01-03T04:46:02.018Z,81.06
2023-01-03T04:48:30.143Z,81.09
2023-01-03T04:50:59.826Z,80.73
2023-01-03T04:53:28.273Z,80.89
2023-01-03T04:55:57.163Z,81.16
2023-01-03T04:58:25.951Z,81.31
2023-01-03T05:01:01.024Z,81.59
2023-01-03T05:03:30.196Z,81.81
2023-01-03T05:06:02.797Z,81.78
2023-01-03T05:08:31.160Z,81.81
2023-01-03T05:10:59.286Z,81.89
2023-01-03T05:13:27.323Z,81.74
2023-01-03T05:15:55.318Z,81.53
2023-01-03T05:18:23.585Z,81.38
2023-01-03T05:21:10.006Z,81.19
2023-01-03T05:23:56.769Z,80.86
2023-01-03T05:26:24.860Z,80.79
2023-01-03T05:28:54.000Z,81.02
2023-01-03T05:31:22.199Z,81.25
2023-01-03T05:33:50.305Z,81.31
2023-01-03T05:36:18.289Z,81.60
2023-01-03T05:38:46.438Z,81.58
2023-01-03T05:41:14.528Z,81.22
2023-01-03T05:43:43.326Z,81.60
2023-01-03T05:46:11.375Z,81.68
2023-01-03T05:48:39.466Z,81.86
2023-01-03T05:51:07.416Z,81.94
2023-01-03T05:53:35.433Z,82.14
2023-01-03T05:56:06.882Z,81.95
2023-01-03T05:58:34.932Z,81.87
2023-01-03T06:01:09.456Z,81.67
2023-01-03T06:03:37.927Z,81.58
2023-01-03T06:06:07.442Z,81.53
2023-01-03T06:08:36.183Z,81.26
2023-01-03T06:11:08.636Z,81.14
2023-01-03T06:13:36.850Z,80.81
2023-01-03T06:16:29.372Z,80.78
2023-01-03T06:18:57.807Z,80.88
2023-01-03T06:21:25.994Z,80.69
2023-01-03T06:23:54.223Z,81.30
2023-01-03T06:26:24.049Z,81.16
2023-01-03T06:28:52.812Z,80.94
2023-01-03T06:31:20.986Z,80.89
2023-01-03T06:33:49.410Z,80.71
2023-01-03T06:36:19.678Z,80.64
2023-01-03T06:38:47.945Z,80.69
2023-01-03T06:41:16.364Z,81.87
2023-01-03T06:43:44.804Z,81.70
2023-01-03T06:46:33.142Z,81.35
2023-01-03T06:49:19.781Z,81.19
2023-01-03T06:52:08.066Z,81.17
2023-01-03T06:54:37.808Z,81.13
2023-01-03T06:57:06.267Z,80.97
2023-01-03T06:59:34.485Z,80.70
2023-01-03T07:02:02.628Z,80.55
2023-01-03T07:04:30.995Z,81.77
2023-01-03T07:06:59.125Z,81.72
2023-01-03T07:09:28.248Z,81.48
2023-01-03T07:11:56.357Z,81.08
2023-01-03T07:14:24.371Z,80.84
2023-01-03T07:16:52.402Z,80.71
2023-01-03T07:19:20.414Z,80.60
2023-01-03T07:21:48.486Z,80.42
2023-01-03T07:24:18.858Z,80.68
2023-01-03T07:26:47.069Z,80.56
2023-01-03T07:29:15.148Z,80.37
2023-01-03T07:31:43.287Z,80.37
2023-01-03T07:34:12.208Z,80.60
2023-01-03T07:36:40.522Z,80.66
2023-01-03T07:39:08.553Z,80.62
2023-01-03T07:41:55.224Z,80.59
2023-01-03T07:44:23.167Z,80.27
2023-01-03T07:46:51.545Z,80.24
2023-01-03T07:49:19.612Z,80.32
2023-01-03T07:51:47.672Z,80.23
2023-01-03T07:54:15.766Z,80.46
2023-01-03T07:56:43.800Z,80.81
2023-01-03T07:59:11.967Z,80.77
2023-01-03T08:01:40.073Z,80.96
2023-01-03T08:04:08.153Z,81.03
2023-01-03T08:06:36.255Z,81.01
2023-01-03T08:09:23.205Z,81.11
2023-01-03T08:12:09.811Z,81.06
2023-01-03T08:14:37.743Z,81.19
2023-01-03T08:17:05.856Z,81.39
2023-01-03T08:19:33.884Z,81.15
2023-01-03T08:22:01.903Z,81.28
2023-01-03T08:24:29.826Z,81.48
2023-01-03T08:26:57.934Z,81.68
2023-01-03T08:29:25.923Z,81.79
2023-01-03T08:31:56.206Z,81.73
2023-01-03T08:34:29.894Z,81.95
2023-01-03T08:37:02.242Z,82.13
2023-01-03T08:39:35.252Z,81.79
2023-01-03T08:42:05.520Z,81.69
2023-01-03T08:44:33.901Z,81.79
2023-01-03T08:47:03.525Z,81.79
2023-01-03T08:49:32.055Z,81.64
2023-01-03T08:52:00.134Z,81.52
2023-01-03T08:54:28.131Z,81.79
2023-01-03T08:56:56.311Z,80.85
2023-01-03T08:59:24.337Z,80.64
2023-01-03T09:01:58.432Z,81.29
2023-01-03T09:04:27.153Z,81.74
2023-01-03T09:06:55.146Z,82.11
2023-01-03T09:09:23.418Z,82.36
2023-01-03T09:11:51.486Z,81.56
2023-01-03T09:14:19.689Z,81.16
2023-01-03T09:16:49.445Z,80.97
2023-01-03T09:19:17.870Z,80.49
2023-01-03T09:21:46.081Z,80.16
2023-01-03T09:24:14.147Z,80.15
2023-01-03T09:26:42.266Z,79.87
2023-01-03T09:29:10.331Z,79.81
2023-01-03T09:31:40.159Z,79.77
2023-01-03T09:34:08.569Z,80.43
2023-01-03T09:36:38.887Z,80.73
2023-01-03T09:39:07.349Z,80.57
2023-01-03T09:41:36.001Z,80.31
2023-01-03T09:44:07.357Z,80.04
2023-01-03T09:46:35.635Z,79.46
2023-01-03T09:49:07.169Z,79.40
2023-01-03T09:51:56.936Z,79.54
2023-01-03T09:54:50.835Z,79.33
2023-01-03T09:57:52.563Z,78.92
2023-01-03T10:00:57.929Z,79.22
2023-01-03T10:03:52.343Z,78.97
2023-01-03T10:06:26.996Z,78.62
2023-01-03T10:09:36.327Z,77.98
2023-01-03T10:12:04.387Z,77.75
2023-01-03T10:14:59.692Z,77.26
2023-01-03T10:17:27.615Z,77.32
2023-01-03T10:20:14.457Z,77.73
2023-01-03T10:22:42.525Z,78.19
2023-01-03T10:25:14.287Z,78.73
2023-01-03T10:27:51.454Z,78.67
2023-01-03T10:30:27.763Z,78.85
2023-01-03T10:33:19.261Z,79.28
2023-01-03T10:35:47.224Z,79.40
2023-01-03T10:38:16.695Z,79.38
2023-01-03T10:40:47.964Z,79.37
2023-01-03T10:43:20.301Z,79.68
2023-01-03T10:46:16.317Z,79.42
2023-01-03T10:49:25.410Z,79.29
2023-01-03T10:51:43.482Z,79.29
2023-01-03T10:54:21.479Z,79.30
2023-01-03T10:56:50.484Z,79.15
2023-01-03T10:59:43.754Z,79.30
2023-01-03T11:02:13.119Z,79.45
2023-01-03T11:04:41.962Z,79.12
2023-01-03T11:07:12.184Z,79.19
2023-01-03T11:09:51.525Z,79.40
2023-01-03T11:12:36.228Z,79.76
2023-01-03T11:15:38.684Z,79.47
2023-01-03T11:18:18.785Z,79.76
2023-01-03T11:20:49.882Z,79.94
2023-01-03T11:23:43.765Z,79.73
2023-01-03T11:26:39.707Z,79.60
2023-01-03T11:29:35.830Z,79.14
2023-01-03T11:32:03.875Z,78.86
2023-01-03T11:35:23.432Z,78.60
2023-01-03T11:38:05.168Z,78.38
2023-01-03T11:40:59.512Z,78.27
2023-01-03T12:40:58.276Z,65.75
2023-01-03T12:43:47.071Z,66.46
2023-01-03T12:46:24.517Z,66.12
2023-01-03T12:49:04.890Z,66.84
2023-01-03T12:51:33.044Z,67.27
2023-01-03T12:54:14.311Z,67.93
2023-01-03T12:57:03.975Z,69.07
2023-01-03T12:59:53.852Z,70.34
2023-01-03T13:02:22.017Z,71.05
2023-01-03T13:04:51.561Z,71.93
2023-01-03T13:07:29.248Z,72.51
2023-01-03T13:10:26.528Z,73.57
2023-01-03T13:12:54.903Z,73.98
2023-01-03T13:15:44.417Z,74.35
2023-01-03T13:18:31.536Z,74.67
2023-01-03T13:21:00.129Z,74.88
2023-01-03T13:23:30.906Z,75.07
2023-01-03T13:26:10.332Z,75.33
2023-01-03T13:28:39.627Z,75.59
2023-01-03T13:31:23.197Z,75.35
2023-01-03T13:33:56.366Z,75.32
2023-01-03T13:36:25.195Z,75.92
2023-01-03T13:38:53.316Z,76.13
2023-01-03T13:41:41.714Z,76.33
2023-01-03T13:44:19.803Z,76.45
2023-01-03T13:46:48.397Z,76.35
2023-01-03T13:49:22.896Z,76.22
2023-01-03T13:51:52.588Z,76.38
2023-01-03T13:54:20.609Z,76.42
2023-01-03T13:56:48.672Z,76.27
2023-01-03T13:59:32.029Z,76.37
2023-01-03T14:02:06.448Z,76.16
2023-01-03T14:04:49.779Z,76.36
2023-01-03T14:07:39.707Z,76.42
2023-01-03T14:10:10.742Z,76.61
2023-01-03T14:12:47.728Z,76.81
2023-01-03T14:15:25.968Z,76.92
2023-01-03T14:17:57.360Z,76.90
2023-01-03T14:20:34.642Z,76.87
2023-01-03T14:23:23.777Z,76.82
2023-01-03T14:25:54.371Z,77.14
2023-01-03T14:28:33.961Z,77.19
2023-01-03T14:31:06.967Z,77.48
2023-01-03T14:33:49.583Z,77.58
2023-01-03T14:36:17.960Z,78.16
2023-01-03T14:38:51.560Z,78.17
2023-01-03T14:41:40.222Z,78.31
2023-01-03T14:44:11.400Z,78.52
2023-01-03T14:46:42.822Z,78.58
2023-01-03T14:49:21.837Z,78.42
2023-01-03T14:51:50.101Z,78.17
2023-01-03T14:54:19.096Z,78.09
2023-01-03T14:56:47.560Z,77.90
2023-01-03T14:59:17.421Z,77.67
2023-01-03T15:01:46.827Z,77.63
2023-01-03T15:04:16.622Z,77.62
2023-01-03T15:07:09.635Z,77.53
2023-01-03T15:09:39.545Z,77.48
2023-01-03T15:12:08.005Z,77.50
2023-01-03T15:14:39.407Z,77.59
2023-01-03T15:17:10.996Z,77.62
2023-01-03T15:19:41.464Z,77.50
2023-01-03T15:22:09.555Z,77.41
2023-01-03T15:24:43.677Z,77.45
2023-01-03T15:27:34.271Z,77.45
2023-01-03T15:30:15.494Z,77.40
2023-01-03T15:32:49.049Z,77.24
2023-01-03T15:35:29.602Z,77.13
2023-01-03T15:37:58.993Z,77.08
2023-01-03T15:40:30.036Z,77.06
2023-01-03T15:43:23.355Z,77.23
2023-01-03T15:45:52.323Z,77.35
2023-01-03T15:48:23.488Z,77.42
2023-01-03T15:50:53.531Z,77.35
2023-01-03T15:53:36.466Z,77.27
2023-01-03T15:56:14.710Z,77.23
2023-01-03T15:58:43.281Z,77.09
2023-01-03T16:01:12.221Z,76.95
2023-01-03T16:03:40.510Z,76.77
2023-01-03T16:06:08.919Z,76.99
2023-01-03T16:08:37.947Z,76.99
2023-01-03T16:11:18.437Z,77.01
2023-01-03T16:13:53.174Z,77.19
2023-01-03T16:16:26.915Z,77.16
2023-01-03T16:18:55.351Z,77.17
2023-01-03T16:21:27.142Z,77.08
2023-01-03T16:23:55.226Z,76.88
2023-01-03T16:26:23.226Z,76.77
2023-01-03T16:28:51.390Z,76.84
2023-01-03T16:31:28.576Z,77.05
2023-01-03T16:33:56.904Z,77.06
2023-01-03T16:36:39.766Z,77.19
2023-01-03T16:39:26.981Z,77.40
2023-01-03T16:42:14.112Z,77.60
2023-01-03T16:44:45.240Z,77.76
2023-01-03T16:47:20.677Z,77.72
2023-01-03T16:49:56.015Z,77.66
2023-01-03T16:52:31.880Z,77.45
2023-01-03T16:55:13.212Z,77.35
2023-01-03T16:57:41.187Z,77.04
2023-01-03T17:00:17.316Z,77.09
2023-01-03T17:02:45.929Z,76.99
2023-01-03T17:05:15.232Z,76.96
2023-01-03T17:07:45.015Z,77.13
2023-01-03T17:10:37.606Z,77.32
2023-01-03T17:13:12.590Z,77.38
2023-01-03T17:15:41.647Z,77.48
2023-01-03T17:18:18.837Z,77.30
2023-01-03T17:20:51.595Z,77.11
2023-01-03T17:23:20.020Z,77.13
2023-01-03T17:25:48.637Z,77.04
2023-01-03T17:28:16.578Z,76.92
2023-01-03T17:30:44.786Z,76.87
2023-01-03T17:33:17.333Z,76.80
2023-01-03T17:35:46.349Z,76.77
2023-01-03T17:38:31.089Z,76.93
2023-01-03T17:40:59.339Z,77.08
2023-01-03T17:43:27.780Z,77.20
2023-01-03T17:46:22.607Z,77.19
2023-01-03T17:49:10.060Z,77.07
2023-01-03T17:51:38.105Z,76.84
2023-01-03T17:54:06.289Z,76.75
2023-01-03T17:56:38.280Z,76.78
2023-01-03T17:59:06.625Z,76.51
2023-01-03T18:01:34.774Z,76.66
2023-01-03T18:04:02.967Z,76.97
2023-01-03T18:06:31.325Z,77.48
2023-01-03T18:09:04.005Z,77.74
2023-01-03T18:11:32.385Z,78.16
2023-01-03T18:14:00.619Z,78.30
2023-01-03T18:16:28.774Z,78.24
2023-01-03T18:18:57.003Z,78.31
2023-01-03T18:21:28.039Z,78.09
2023-01-03T18:24:20.500Z,77.86
2023-01-03T18:26:51.559Z,77.73
2023-01-03T18:29:19.801Z,77.82
2023-01-03T18:31:48.093Z,77.96
2023-01-03T18:34:16.132Z,77.88
2023-01-03T18:36:48.179Z,77.94
2023-01-03T18:39:25.081Z,77.91
2023-01-03T18:41:53.324Z,77.73
2023-01-03T18:44:25.031Z,77.47
2023-01-03T18:46:53.671Z,77.11
2023-01-03T18:49:21.710Z,76.90
2023-01-03T18:51:54.494Z,76.93
2023-01-03T18:54:22.542Z,76.83
2023-01-03T18:56:50.832Z,76.90
2023-01-03T18:59:24.814Z,77.16
2023-01-03T19:01:53.721Z,77.51
2023-01-03T19:04:22.051Z,77.81
2023-01-03T19:06:53.273Z,77.91
2023-01-03T19:09:23.429Z,77.65
2023-01-03T19:11:53.311Z,77.51
2023-01-03T19:14:21.776Z,77.45
2023-01-03T19:16:50.109Z,77.24
2023-01-03T19:19:18.136Z,77.11
2023-01-03T19:21:46.996Z,77.04
2023-01-03T19:24:24.037Z,77.21
2023-01-03T19:26:58.014Z,77.44
2023-01-03T19:29:32.026Z,77.53
2023-01-03T19:32:00.146Z,77.68
2023-01-03T19:34:29.100Z,77.42
2023-01-03T19:37:00.715Z,77.24
2023-01-03T19:39:35.186Z,77.10
2023-01-03T19:42:26.625Z,76.90
2023-01-03T19:44:55.333Z,76.86
2023-01-03T19:47:24.367Z,77.05
2023-01-03T19:49:52.629Z,77.17
2023-01-03T19:52:20.877Z,77.35
2023-01-03T19:54:48.944Z,77.49
2023-01-03T19:57:21.449Z,77.45
2023-01-03T20:00:00.517Z,77.34
2023-01-03T20:02:39.498Z,77.21
2023-01-03T20:05:16.593Z,77.09
2023-01-03T20:07:45.292Z,77.05
2023-01-03T20:10:15.680Z,77.02
2023-01-03T20:12:43.798Z,77.01
2023-01-03T20:15:24.489Z,77.09
2023-01-03T20:17:53.088Z,77.31
2023-01-03T20:20:22.705Z,77.33
2023-01-03T20:23:05.903Z,77.55
2023-01-03T20:25:35.694Z,77.67
2023-01-03T20:28:04.010Z,77.51
2023-01-03T20:30:33.067Z,77.34
2023-01-03T20:33:01.449Z,77.39
2023-01-03T20:38:27.495Z,77.63
2023-01-03T20:40:56.435Z,77.98
2023-01-03T20:43:24.572Z,78.13
2023-01-03T20:45:55.697Z,77.95
2023-01-03T20:48:26.206Z,78.06
2023-01-03T20:50:55.149Z,77.87
2023-01-03T20:53:27.137Z,77.63
2023-01-03T20:55:55.459Z,77.26
2023-01-03T20:58:27.770Z,77.35
2023-01-03T21:01:04.211Z,77.16
2023-01-03T21:03:36.960Z,77.48
2023-01-03T21:06:34.544Z,77.74
2023-01-03T21:09:02.624Z,77.91
2023-01-03T21:11:32.524Z,77.97
2023-01-03T21:14:01.223Z,77.68
2023-01-03T21:16:38.202Z,77.38
2023-01-03T21:19:20.763Z,77.26
2023-01-03T21:21:51.440Z,77.33
2023-01-03T21:24:22.085Z,77.27
2023-01-03T21:26:50.300Z,77.19
2023-01-03T21:29:18.516Z,77.44
2023-01-03T21:31:46.644Z,77.63
2023-01-03T21:34:18.767Z,77.90
2023-01-03T21:36:47.111Z,78.04
2023-01-03T21:39:15.507Z,78.00
2023-01-03T21:42:02.554Z,77.94
2023-01-03T21:44:30.662Z,77.95
2023-01-03T21:46:58.551Z,78.00
2023-01-03T21:49:26.585Z,78.24
2023-01-03T21:51:54.563Z,78.39
2023-01-03T21:54:22.638Z,78.48
2023-01-03T21:56:50.645Z,78.64
2023-01-03T21:59:18.742Z,78.75
2023-01-03T22:02:06.432Z,78.65
2023-01-03T22:04:35.007Z,78.85
2023-01-03T22:07:03.035Z,78.62
2023-01-03T22:09:50.519Z,78.86
2023-01-03T22:12:27.113Z,79.19
2023-01-03T22:14:55.561Z,79.27
2023-01-03T22:17:23.602Z,79.26
2023-01-03T22:19:51.625Z,79.21
2023-01-03T22:22:19.612Z,79.01
2023-01-03T22:24:47.604Z,78.79
2023-01-03T22:27:16.823Z,78.80
2023-01-03T22:29:44.883Z,78.76
2023-01-03T22:32:12.953Z,78.46
2023-01-03T22:34:40.954Z,78.90
2023-01-03T22:37:09.046Z,79.16
2023-01-03T22:39:37.107Z,79.25
2023-01-03T22:42:05.322Z,79.26
2023-01-03T22:44:33.520Z,79.10
2023-01-03T22:47:01.585Z,78.86
2023-01-03T22:49:29.717Z,78.56
2023-01-03T22:51:57.767Z,78.36
2023-01-03T22:54:25.848Z,78.19
2023-01-03T22:56:57.244Z,78.16
2023-01-03T22:59:25.301Z,78.52
2023-01-03T23:01:53.503Z,78.52
2023-01-03T23:04:23.299Z,78.86
2023-01-03T23:06:51.369Z,78.99
2023-01-03T23:09:19.961Z,79.18
2023-01-03T23:12:07.255Z,79.14
2023-01-03T23:14:35.327Z,79.05
2023-01-03T23:17:22.932Z,78.63
2023-01-03T23:19:50.901Z,78.63
2023-01-03T23:22:18.976Z,78.62
2023-01-03T23:24:47.169Z,78.82
2023-01-03T23:27:15.253Z,78.91
2023-01-03T23:29:43.297Z,78.94
2023-01-03T23:32:11.277Z,79.17
2023-01-03T23:34:39.364Z,79.26
2023-01-03T23:37:07.271Z,79.18
2023-01-03T23:39:35.600Z,78.86
2023-01-03T23:42:03.688Z,78.55
2023-01-03T23:44:32.900Z,78.36
2023-01-03T23:47:03.775Z,78.18
2023-01-03T23:49:34.494Z,78.20
2023-01-03T23:52:02.443Z,78.27
2023-01-03T23:54:30.483Z,78.31
2023-01-03T23:56:58.561Z,78.46
2023-01-03T23:59:26.663Z,78.56
